createdAt,value
2019-03-31T00:02:29.846Z,132.07
2019-03-31T00:05:02.415Z,128.45
2019-03-31T00:07:35.375Z,149.53
2019-03-31T00:10:07.928Z,130.52
2019-03-31T00:12:40.536Z,134.95
2019-03-31T00:15:13.379Z,129.90
2019-03-31T00:17:45.978Z,131.65
2019-03-31T00:20:18.516Z,128.65
2019-03-31T00:22:51.162Z,129.93
2019-03-31T00:25:23.786Z,132.65
2019-03-31T00:27:56.335Z,130.50
2019-03-31T00:30:28.908Z,116.62
2019-03-31T00:33:01.388Z,112.50
2019-03-31T00:35:33.845Z,118.75
2019-03-31T00:38:06.365Z,132.52
2019-03-31T00:40:38.956Z,133.47
2019-03-31T00:43:11.606Z,124.90
2019-03-31T00:45:44.177Z,128.53
2019-03-31T00:48:16.666Z,120.87
2019-03-31T00:50:49.225Z,126.72
2019-03-31T00:53:21.636Z,120.75
2019-03-31T00:55:54.126Z,121.42
2019-03-31T00:58:26.676Z,115.88
2019-03-31T01:01:17.974Z,126.00
2019-03-31T01:03:52.097Z,113.90
2019-03-31T01:06:24.895Z,123.00
2019-03-31T01:08:58.661Z,120.60
2019-03-31T01:11:31.166Z,110.60
2019-03-31T01:14:03.844Z,113.60
2019-03-31T01:16:36.457Z,122.35
2019-03-31T01:19:09.414Z,112.42
2019-03-31T01:21:42.119Z,102.42
2019-03-31T01:24:14.996Z,114.08
2019-03-31T01:26:48.285Z,106.47
2019-03-31T01:29:22.666Z,124.15
2019-03-31T01:31:56.595Z,110.05
2019-03-31T01:34:29.086Z,102.38
2019-03-31T01:37:01.860Z,111.70
2019-03-31T01:39:34.989Z,108.12
2019-03-31T01:42:07.616Z,102.60
2019-03-31T01:44:40.075Z,100.72
2019-03-31T01:47:13.088Z,101.35
2019-03-31T01:49:46.795Z,101.87
2019-03-31T01:52:20.686Z,87.33
2019-03-31T01:54:54.516Z,92.95
2019-03-31T01:57:29.055Z,100.58
2019-03-31T02:00:02.026Z,95.75
2019-03-31T02:02:35.026Z,89.20
2019-03-31T02:05:08.306Z,90.87
2019-03-31T02:07:41.036Z,91.25
2019-03-31T02:10:14.137Z,96.45
2019-03-31T02:12:46.837Z,92.92
2019-03-31T02:15:19.420Z,92.80
2019-03-31T02:17:52.036Z,88.85
2019-03-31T02:20:24.706Z,92.05
2019-03-31T02:22:57.325Z,86.05
2019-03-31T02:25:30.275Z,79.50
2019-03-31T02:28:03.491Z,86.55
2019-03-31T02:30:35.928Z,81.78
2019-03-31T02:33:08.840Z,86.65
2019-03-31T02:35:42.575Z,85.97
2019-03-31T02:38:15.276Z,94.30
2019-03-31T02:40:48.274Z,87.50
2019-03-31T02:43:20.826Z,93.58
2019-03-31T02:45:53.296Z,91.92
2019-03-31T02:48:26.200Z,92.37
2019-03-31T02:50:58.966Z,82.78
2019-03-31T02:53:32.039Z,85.90
2019-03-31T02:56:06.136Z,90.05
2019-03-31T02:58:40.017Z,79.58
2019-03-31T03:01:15.716Z,80.03
2019-03-31T03:03:50.296Z,82.05
2019-03-31T03:06:24.880Z,84.05
2019-03-31T03:08:59.336Z,97.88
2019-03-31T03:11:33.267Z,90.28
2019-03-31T03:14:07.908Z,83.95
2019-03-31T03:16:40.818Z,88.40
2019-03-31T03:19:13.762Z,91.37
2019-03-31T03:21:46.493Z,88.22
2019-03-31T03:24:19.147Z,82.27
2019-03-31T03:26:52.017Z,79.47
2019-03-31T03:29:24.787Z,77.82
2019-03-31T03:31:57.588Z,75.75
2019-03-31T03:34:30.068Z,79.07
2019-03-31T03:37:02.835Z,73.05
2019-03-31T03:39:35.646Z,71.62
2019-03-31T03:42:08.187Z,72.75
2019-03-31T03:44:40.919Z,70.55
2019-03-31T03:47:13.588Z,79.70
2019-03-31T03:49:46.456Z,70.65
2019-03-31T03:52:19.157Z,78.02
2019-03-31T03:54:51.907Z,66.42
2019-03-31T03:57:24.447Z,60.98
2019-03-31T03:59:57.559Z,61.08
2019-03-31T04:02:30.316Z,61.15
2019-03-31T04:05:02.871Z,59.23
2019-03-31T04:07:35.584Z,56.68
2019-03-31T04:10:11.378Z,69.42
2019-03-31T04:12:43.958Z,63.52
2019-03-31T04:15:16.979Z,57.67
2019-03-31T04:17:49.865Z,66.00
2019-03-31T04:20:22.388Z,58.05
2019-03-31T04:22:55.053Z,62.23
2019-03-31T04:25:27.909Z,64.05
2019-03-31T04:28:00.754Z,62.05
2019-03-31T04:30:33.518Z,72.32
2019-03-31T04:33:06.232Z,63.98
2019-03-31T04:35:39.048Z,66.92
2019-03-31T04:38:11.919Z,66.30
2019-03-31T04:40:44.957Z,66.57
2019-03-31T04:43:17.557Z,66.62
2019-03-31T04:45:50.275Z,66.57
2019-03-31T04:48:22.938Z,69.17
2019-03-31T04:50:55.894Z,74.67
2019-03-31T04:53:28.506Z,82.33
2019-03-31T04:56:01.189Z,74.60
2019-03-31T04:58:35.066Z,79.20
2019-03-31T05:01:07.740Z,70.70
2019-03-31T05:03:40.464Z,76.70
2019-03-31T05:06:13.673Z,71.25
2019-03-31T05:08:46.424Z,77.15
2019-03-31T05:11:19.206Z,87.97
2019-03-31T05:13:51.813Z,82.80
2019-03-31T05:16:24.477Z,73.67
2019-03-31T05:18:57.237Z,87.27
2019-03-31T05:21:30.280Z,77.78
2019-03-31T05:24:02.944Z,76.60
2019-03-31T05:26:35.738Z,80.80
2019-03-31T05:29:08.287Z,79.60
2019-03-31T05:31:41.134Z,77.60
2019-03-31T05:34:19.252Z,70.65
2019-03-31T05:36:48.395Z,71.60
2019-03-31T05:39:21.324Z,70.78
2019-03-31T05:41:54.156Z,72.62
2019-03-31T05:44:26.885Z,68.90
2019-03-31T05:46:59.696Z,87.02
2019-03-31T05:49:33.208Z,78.50
2019-03-31T05:52:06.047Z,81.60
2019-03-31T05:54:38.674Z,83.47
2019-03-31T05:57:11.504Z,88.15
2019-03-31T05:59:44.311Z,95.10
2019-03-31T06:02:17.176Z,81.25
2019-03-31T06:04:49.956Z,84.58
2019-03-31T06:07:22.728Z,85.90
2019-03-31T06:09:55.474Z,85.87
2019-03-31T06:12:28.147Z,83.82
2019-03-31T06:15:00.844Z,74.10
2019-03-31T06:17:33.737Z,77.20
2019-03-31T06:20:07.397Z,75.22
2019-03-31T06:22:40.445Z,65.28
2019-03-31T06:25:13.089Z,76.95
2019-03-31T06:27:45.707Z,80.47
2019-03-31T06:30:18.394Z,81.00
2019-03-31T06:32:51.644Z,72.60
2019-03-31T06:35:24.251Z,72.42
2019-03-31T06:37:57.167Z,82.40
2019-03-31T06:40:29.885Z,81.15
2019-03-31T06:43:02.897Z,73.45
2019-03-31T06:45:35.736Z,68.70
2019-03-31T06:48:08.579Z,76.72
2019-03-31T06:50:41.094Z,75.47
2019-03-31T06:53:14.066Z,77.65
2019-03-31T06:55:46.766Z,84.03
2019-03-31T06:58:19.556Z,94.67
2019-03-31T07:00:52.404Z,85.15
2019-03-31T07:03:25.155Z,85.50
2019-03-31T07:05:57.823Z,78.45
2019-03-31T07:08:30.676Z,81.05
2019-03-31T07:11:04.007Z,73.00
2019-03-31T07:13:36.647Z,76.80
2019-03-31T07:16:09.607Z,67.75
2019-03-31T07:18:42.425Z,78.52
2019-03-31T07:21:15.476Z,82.97
2019-03-31T07:23:48.466Z,80.07
2019-03-31T07:26:21.236Z,78.83
2019-03-31T07:28:53.964Z,68.47
2019-03-31T07:31:26.802Z,65.70
2019-03-31T07:33:59.599Z,65.95
2019-03-31T07:36:32.394Z,62.58
2019-03-31T07:39:07.221Z,60.92
2019-03-31T07:41:40.241Z,51.53
2019-03-31T07:44:15.578Z,53.28
2019-03-31T07:46:48.285Z,53.28
2019-03-31T07:49:20.826Z,50.03
2019-03-31T07:51:53.885Z,52.43
2019-03-31T07:54:27.556Z,65.55
2019-03-31T07:57:00.435Z,51.95
2019-03-31T07:59:33.585Z,59.05
2019-03-31T08:02:06.334Z,44.75
2019-03-31T08:04:40.265Z,70.62
2019-03-31T08:07:12.968Z,55.55
2019-03-31T08:09:46.086Z,51.00
2019-03-31T08:12:18.874Z,59.67
2019-03-31T08:14:51.786Z,69.27
2019-03-31T08:17:24.646Z,77.20
2019-03-31T08:19:57.376Z,57.23
2019-03-31T08:22:30.240Z,66.30
2019-03-31T08:25:03.064Z,86.92
2019-03-31T08:27:36.344Z,69.90
2019-03-31T08:30:11.546Z,65.00
2019-03-31T08:32:44.744Z,56.95
2019-03-31T08:35:18.626Z,71.47
2019-03-31T08:37:51.260Z,68.85
2019-03-31T08:40:24.894Z,66.05
2019-03-31T08:42:58.046Z,48.90
2019-03-31T08:45:31.116Z,50.15
2019-03-31T08:48:03.994Z,54.33
2019-03-31T08:50:37.300Z,55.00
2019-03-31T08:53:10.064Z,47.43
2019-03-31T08:55:42.995Z,48.02
2019-03-31T08:58:16.049Z,39.18
2019-03-31T09:00:58.356Z,34.20
2019-03-31T09:06:02.815Z,47.05
2019-03-31T09:08:36.115Z,59.83
2019-03-31T09:11:08.728Z,55.98
2019-03-31T09:13:41.654Z,47.75
2019-03-31T09:16:15.017Z,31.17
2019-03-31T09:18:49.276Z,34.73
2019-03-31T09:21:22.149Z,27.05
2019-03-31T09:23:55.684Z,28.38
2019-03-31T09:26:28.597Z,29.07
2019-03-31T09:29:03.126Z,27.22
2019-03-31T09:31:36.308Z,23.98
2019-03-31T09:34:08.924Z,24.10
2019-03-31T09:36:42.046Z,24.10
2019-03-31T09:39:14.977Z,22.95
2019-03-31T09:41:47.925Z,24.67
2019-03-31T09:44:21.256Z,45.45
2019-03-31T09:46:54.496Z,25.62
2019-03-31T09:49:27.104Z,28.12
2019-03-31T09:52:00.326Z,32.40
2019-03-31T09:54:33.208Z,35.08
2019-03-31T09:57:05.899Z,22.20
2019-03-31T09:59:39.046Z,23.70
2019-03-31T10:02:12.164Z,17.52
2019-03-31T10:04:45.335Z,21.68
2019-03-31T10:07:25.316Z,19.15
2019-03-31T10:09:58.906Z,21.75
2019-03-31T10:12:32.144Z,19.75
2019-03-31T10:15:05.536Z,18.95
2019-03-31T10:17:38.506Z,16.95
2019-03-31T10:20:11.374Z,19.42
2019-03-31T10:22:44.724Z,20.92
2019-03-31T10:25:17.472Z,20.97
2019-03-31T10:27:50.599Z,21.60
2019-03-31T10:30:32.853Z,18.42
2019-03-31T10:35:37.824Z,20.17
2019-03-31T10:38:11.007Z,20.72
2019-03-31T10:40:44.114Z,18.70
2019-03-31T10:43:17.103Z,19.55
2019-03-31T10:45:50.246Z,19.23
2019-03-31T10:48:22.956Z,21.05
2019-03-31T10:50:55.897Z,25.50
2019-03-31T10:53:28.511Z,27.22
2019-03-31T10:56:01.966Z,39.92
2019-03-31T10:58:34.586Z,26.48
2019-03-31T11:01:08.927Z,21.10
2019-03-31T11:03:41.889Z,27.25
2019-03-31T11:06:14.614Z,25.32
2019-03-31T11:08:47.556Z,21.82
2019-03-31T11:11:20.436Z,17.80
2019-03-31T11:13:53.126Z,18.65
2019-03-31T11:16:25.714Z,18.17
2019-03-31T11:18:58.436Z,20.85
2019-03-31T11:21:36.248Z,19.42
2019-03-31T11:24:08.934Z,22.25
2019-03-31T11:26:41.576Z,21.95
2019-03-31T11:29:14.217Z,21.02
2019-03-31T11:31:47.151Z,23.42
2019-03-31T11:34:21.366Z,22.30
2019-03-31T11:36:54.386Z,26.42
2019-03-31T11:39:27.234Z,19.65
2019-03-31T11:41:59.934Z,23.75
2019-03-31T11:44:34.314Z,21.33
2019-03-31T11:47:07.349Z,19.73
2019-03-31T11:49:43.034Z,21.35
2019-03-31T11:52:15.708Z,23.22
2019-03-31T11:54:48.374Z,18.12
2019-03-31T11:57:20.967Z,23.55
2019-03-31T11:59:53.665Z,21.05
2019-03-31T12:02:30.723Z,19.12
2019-03-31T12:05:06.222Z,21.25
2019-03-31T12:07:47.220Z,21.97
2019-03-31T12:10:15.703Z,23.22
2019-03-31T12:12:49.096Z,20.08
2019-03-31T12:15:32.336Z,20.32
2019-03-31T12:18:08.835Z,18.82
2019-03-31T12:20:42.060Z,18.35
2019-03-31T12:23:14.777Z,22.20
2019-03-31T12:25:47.969Z,16.45
2019-03-31T12:28:20.589Z,20.45
2019-03-31T12:30:53.233Z,19.15
2019-03-31T12:33:25.785Z,18.57
2019-03-31T12:35:58.473Z,17.27
2019-03-31T12:38:38.144Z,16.35
2019-03-31T12:41:11.564Z,15.43
2019-03-31T12:43:44.565Z,16.27
2019-03-31T12:46:17.135Z,17.75
2019-03-31T12:48:50.014Z,19.27
2019-03-31T12:51:24.715Z,15.43
2019-03-31T12:53:57.426Z,17.00
2019-03-31T12:56:30.001Z,20.97
2019-03-31T12:59:03.017Z,21.52
2019-03-31T13:01:35.677Z,18.65
2019-03-31T13:04:08.423Z,15.53
2019-03-31T13:06:41.193Z,23.85
2019-03-31T13:09:41.615Z,16.48
2019-03-31T13:12:14.154Z,17.00
2019-03-31T13:14:47.033Z,18.82
2019-03-31T13:17:19.508Z,20.08
2019-03-31T13:19:52.363Z,17.05
2019-03-31T13:22:38.666Z,17.00
2019-03-31T13:25:13.633Z,20.45
2019-03-31T13:27:46.153Z,16.32
2019-03-31T13:30:21.898Z,14.93
2019-03-31T13:32:53.667Z,17.17
2019-03-31T13:35:26.465Z,16.02
2019-03-31T13:38:10.803Z,19.02
2019-03-31T13:40:38.898Z,21.68
2019-03-31T13:43:11.534Z,22.93
2019-03-31T13:45:44.325Z,17.77
2019-03-31T13:48:17.124Z,23.77
2019-03-31T13:50:49.817Z,22.73
2019-03-31T13:53:22.654Z,21.87
2019-03-31T13:55:55.195Z,23.42
2019-03-31T13:58:31.133Z,30.77
2019-03-31T14:01:08.059Z,24.90
2019-03-31T14:03:40.936Z,24.10
2019-03-31T14:06:14.075Z,21.07
2019-03-31T14:08:47.504Z,20.00
2019-03-31T14:11:21.761Z,22.87
2019-03-31T14:13:56.112Z,24.07
2019-03-31T14:16:36.255Z,26.77
2019-03-31T14:19:12.862Z,32.08
2019-03-31T14:21:43.855Z,25.32
2019-03-31T14:24:22.986Z,28.42
2019-03-31T14:26:55.757Z,25.12
2019-03-31T14:29:28.617Z,29.90
2019-03-31T14:32:05.571Z,26.73
2019-03-31T14:34:38.396Z,27.02
2019-03-31T14:37:11.364Z,31.33
2019-03-31T14:39:44.236Z,27.62
2019-03-31T14:42:18.325Z,35.48
2019-03-31T14:44:52.615Z,27.60
2019-03-31T14:47:27.863Z,26.80
2019-03-31T14:50:00.752Z,26.40
2019-03-31T14:52:35.226Z,28.83
2019-03-31T14:55:08.245Z,26.73
2019-03-31T14:57:44.610Z,29.70
2019-03-31T15:00:17.548Z,29.70
2019-03-31T15:02:52.913Z,38.98
2019-03-31T15:05:35.315Z,33.60
2019-03-31T15:08:11.616Z,32.65
2019-03-31T15:10:46.124Z,34.90
2019-03-31T15:13:18.755Z,30.27
2019-03-31T15:15:51.516Z,34.75
2019-03-31T15:18:24.328Z,32.55
2019-03-31T15:20:56.927Z,29.10
2019-03-31T15:23:29.709Z,32.55
2019-03-31T15:26:02.589Z,32.05
2019-03-31T15:28:35.855Z,30.75
2019-03-31T15:31:09.784Z,31.52
2019-03-31T15:33:45.066Z,24.40
2019-03-31T15:36:18.574Z,29.35
2019-03-31T15:38:51.896Z,30.50
2019-03-31T15:41:29.856Z,24.47
2019-03-31T15:44:02.860Z,32.13
2019-03-31T15:46:35.663Z,28.85
2019-03-31T15:49:09.508Z,27.82
2019-03-31T15:51:42.064Z,26.50
2019-03-31T15:54:17.654Z,29.82
2019-03-31T15:56:50.514Z,28.40
2019-03-31T15:59:23.465Z,25.00
2019-03-31T16:01:56.294Z,27.58
2019-03-31T16:04:29.034Z,20.82
2019-03-31T16:07:02.794Z,23.57
2019-03-31T16:09:35.144Z,21.82
2019-03-31T16:12:08.314Z,26.75
2019-03-31T16:14:40.504Z,33.78
2019-03-31T16:19:43.444Z,46.33
2019-03-31T16:24:52.105Z,42.03
2019-03-31T16:27:24.436Z,39.92
2019-03-31T16:29:56.616Z,39.70
2019-03-31T16:32:28.604Z,54.25
2019-03-31T16:35:01.235Z,47.20
2019-03-31T16:37:33.573Z,47.90
2019-03-31T16:40:06.353Z,52.15
2019-03-31T16:42:38.613Z,57.75
2019-03-31T16:47:48.500Z,48.73
2019-03-31T16:50:20.505Z,59.42
2019-03-31T16:52:57.456Z,29.65
2019-03-31T16:55:33.951Z,49.53
2019-03-31T16:58:09.660Z,76.50
2019-03-31T17:00:42.804Z,70.37
2019-03-31T17:03:18.104Z,68.52
2019-03-31T17:05:48.543Z,51.28
2019-03-31T17:08:20.714Z,55.67
2019-03-31T17:13:24.299Z,53.98
2019-03-31T17:15:56.594Z,43.30
2019-03-31T17:18:28.666Z,57.70
2019-03-31T17:21:00.718Z,33.90
2019-03-31T17:26:06.074Z,42.27
2019-03-31T17:28:38.425Z,34.98
2019-03-31T17:31:10.444Z,39.90
2019-03-31T17:33:43.147Z,43.73
2019-03-31T17:36:15.387Z,47.73
2019-03-31T17:38:47.616Z,79.85
2019-03-31T17:43:50.516Z,38.83
2019-03-31T17:46:23.256Z,55.92
2019-03-31T17:48:55.396Z,54.98
2019-03-31T17:51:27.496Z,56.35
2019-03-31T17:56:30.444Z,57.98
2019-03-31T17:59:02.515Z,58.33
2019-03-31T18:01:34.495Z,99.90
2019-03-31T18:04:06.530Z,147.37
2019-03-31T18:06:38.524Z,25.23
2019-03-31T18:09:10.996Z,13.78
2019-03-31T18:11:43.256Z,14.45
2019-03-31T18:16:47.157Z,11.20
2019-03-31T18:19:19.236Z,12.98
2019-03-31T18:21:51.280Z,11.48
2019-03-31T18:26:54.834Z,15.70
2019-03-31T18:31:57.620Z,11.55
2019-03-31T18:34:29.594Z,11.63
2019-03-31T18:37:05.095Z,17.40
2019-03-31T18:39:37.155Z,15.72
2019-03-31T18:42:09.064Z,10.25
2019-03-31T18:44:41.355Z,13.48
2019-03-31T18:49:44.361Z,9.58
2019-03-31T18:52:16.452Z,9.68
2019-03-31T18:54:59.067Z,12.82
2019-03-31T18:57:53.355Z,11.75
2019-03-31T19:00:42.861Z,19.35
2019-03-31T19:03:34.046Z,26.62
2019-03-31T19:06:25.125Z,27.02
2019-03-31T19:09:09.368Z,28.65
2019-03-31T19:12:06.338Z,30.25
2019-03-31T19:15:06.178Z,22.60
2019-03-31T19:17:55.638Z,23.62
2019-03-31T19:20:45.094Z,20.40
2019-03-31T19:23:42.794Z,19.50
2019-03-31T19:26:49.042Z,16.82
2019-03-31T19:29:43.095Z,22.62
2019-03-31T19:32:36.834Z,17.87
2019-03-31T19:35:17.589Z,19.85
2019-03-31T19:38:05.043Z,20.40
2019-03-31T19:41:04.141Z,18.73
2019-03-31T19:43:51.494Z,13.95
2019-03-31T19:46:48.636Z,10.55
2019-03-31T19:49:37.898Z,11.43
2019-03-31T19:52:44.126Z,12.78
2019-03-31T19:55:38.814Z,12.93
2019-03-31T19:58:41.494Z,13.43
2019-03-31T20:04:22.937Z,12.33
2019-03-31T20:07:22.638Z,13.05
2019-03-31T20:10:14.441Z,12.58
2019-03-31T20:13:05.544Z,11.75
2019-03-31T20:15:47.957Z,9.70
2019-03-31T20:18:39.684Z,10.13
2019-03-31T20:21:33.294Z,10.80
2019-03-31T20:24:27.228Z,11.18
2019-03-31T20:27:18.034Z,12.82
2019-03-31T20:30:05.538Z,9.58
2019-03-31T20:32:54.961Z,12.98
2019-03-31T20:35:48.756Z,9.83
2019-03-31T20:38:31.406Z,9.23
2019-03-31T20:41:09.088Z,12.15
2019-03-31T20:43:57.368Z,9.13
2019-03-31T20:46:29.458Z,10.15
2019-03-31T20:49:01.435Z,13.90
2019-03-31T20:51:33.583Z,9.10
2019-03-31T20:54:05.792Z,9.58
2019-03-31T20:59:08.695Z,10.08
2019-03-31T21:01:41.444Z,14.13
2019-03-31T21:06:44.526Z,13.70
2019-03-31T21:09:16.501Z,13.10
2019-03-31T21:11:48.621Z,9.48
2019-03-31T21:14:20.515Z,9.18
2019-03-31T21:16:59.289Z,10.60
2019-03-31T21:19:36.004Z,10.28
2019-03-31T21:22:07.976Z,17.57
2019-03-31T21:24:39.995Z,12.15
2019-03-31T21:27:14.166Z,18.37
2019-03-31T21:29:46.256Z,14.47
2019-03-31T21:32:18.397Z,12.20
2019-03-31T21:37:21.657Z,13.38
2019-03-31T21:39:53.677Z,11.05
2019-03-31T21:42:25.815Z,9.28
2019-03-31T21:44:57.847Z,16.10
2019-03-31T21:50:00.769Z,13.70
2019-03-31T21:52:34.521Z,15.72
2019-03-31T21:55:06.876Z,11.10
2019-03-31T22:00:12.183Z,13.40
2019-03-31T22:02:46.046Z,11.00
2019-03-31T22:05:18.217Z,11.97
2019-03-31T22:10:21.216Z,13.38
2019-03-31T22:12:53.269Z,13.53
2019-03-31T22:15:25.196Z,10.35
2019-03-31T22:17:57.156Z,8.23
2019-03-31T22:20:29.196Z,22.25
2019-03-31T22:23:04.350Z,9.33
2019-03-31T22:25:45.196Z,12.93
2019-03-31T22:28:17.385Z,14.10
2019-03-31T22:30:49.496Z,11.10
2019-03-31T22:33:21.399Z,10.43
2019-03-31T22:36:15.465Z,13.65
2019-03-31T22:38:47.387Z,9.73
2019-03-31T22:41:19.618Z,10.85
2019-03-31T22:43:51.776Z,11.65
2019-03-31T22:46:23.688Z,11.78
2019-03-31T22:48:56.146Z,13.35
2019-03-31T22:51:29.324Z,9.30
2019-03-31T22:56:32.108Z,18.73
2019-03-31T22:59:03.986Z,14.95
2019-03-31T23:01:35.858Z,20.20
2019-03-31T23:04:07.986Z,17.00
2019-03-31T23:06:41.543Z,16.20
2019-03-31T23:09:13.505Z,18.10
2019-03-31T23:11:45.588Z,15.80
2019-03-31T23:16:48.698Z,22.62
2019-03-31T23:21:51.795Z,17.48
2019-03-31T23:26:54.675Z,20.05
2019-03-31T23:29:26.765Z,23.35
2019-03-31T23:31:59.045Z,18.52
2019-03-31T23:34:31.847Z,17.07
2019-03-31T23:37:04.118Z,12.10
2019-03-31T23:39:36.267Z,14.18
2019-03-31T23:42:08.747Z,12.53
2019-03-31T23:44:40.755Z,11.48
2019-03-31T23:47:13.146Z,12.05
2019-03-31T23:49:45.516Z,9.80
2019-03-31T23:52:17.598Z,9.88
2019-03-31T23:54:49.726Z,11.18
2019-03-31T23:57:39.316Z,15.30
